sensor_id;sensor_type;location;lat;lon;timestamp;temperature;humidity
14577;DHT22;7375;46.072;14.470;2022-10-17T00:02:14;20.50;90.10
14577;DHT22;7375;46.072;14.470;2022-10-17T00:04:41;20.50;90.10
14577;DHT22;7375;46.072;14.470;2022-10-17T00:07:08;20.50;90.20
14577;DHT22;7375;46.072;14.470;2022-10-17T00:09:34;20.50;90.10
14577;DHT22;7375;46.072;14.470;2022-10-17T00:12:01;20.50;90.20
14577;DHT22;7375;46.072;14.470;2022-10-17T00:14:28;20.50;90.10
14577;DHT22;7375;46.072;14.470;2022-10-17T00:16:56;20.50;90.10
14577;DHT22;7375;46.072;14.470;2022-10-17T00:19:26;20.50;90.20
14577;DHT22;7375;46.072;14.470;2022-10-17T00:21:53;20.50;90.20
14577;DHT22;7375;46.072;14.470;2022-10-17T00:24:19;20.50;90.20
14577;DHT22;7375;46.072;14.470;2022-10-17T00:26:46;20.50;90.20
14577;DHT22;7375;46.072;14.470;2022-10-17T00:29:13;20.50;90.20
14577;DHT22;7375;46.072;14.470;2022-10-17T00:31:39;20.50;90.20
14577;DHT22;7375;46.072;14.470;2022-10-17T00:34:08;20.50;90.20
14577;DHT22;7375;46.072;14.470;2022-10-17T00:36:35;20.50;90.30
14577;DHT22;7375;46.072;14.470;2022-10-17T00:39:04;20.50;90.20
14577;DHT22;7375;46.072;14.470;2022-10-17T00:41:31;20.50;90.20
14577;DHT22;7375;46.072;14.470;2022-10-17T00:43:59;20.50;90.20
14577;DHT22;7375;46.072;14.470;2022-10-17T00:46:27;20.50;90.20
14577;DHT22;7375;46.072;14.470;2022-10-17T00:48:58;20.50;90.20
14577;DHT22;7375;46.072;14.470;2022-10-17T00:51:28;20.50;90.30
14577;DHT22;7375;46.072;14.470;2022-10-17T00:53:57;20.50;90.20
14577;DHT22;7375;46.072;14.470;2022-10-17T00:56:24;20.50;90.20
14577;DHT22;7375;46.072;14.470;2022-10-17T00:58:51;20.50;90.20
14577;DHT22;7375;46.072;14.470;2022-10-17T01:01:18;20.50;90.20
14577;DHT22;7375;46.072;14.470;2022-10-17T01:03:45;20.40;90.10
14577;DHT22;7375;46.072;14.470;2022-10-17T01:06:11;20.40;90.10
14577;DHT22;7375;46.072;14.470;2022-10-17T01:08:40;20.40;90.20
14577;DHT22;7375;46.072;14.470;2022-10-17T01:11:10;20.50;90.20
14577;DHT22;7375;46.072;14.470;2022-10-17T01:13:40;20.40;90.10
14577;DHT22;7375;46.072;14.470;2022-10-17T01:16:08;20.40;90.10
14577;DHT22;7375;46.072;14.470;2022-10-17T01:18:42;20.40;90.10
14577;DHT22;7375;46.072;14.470;2022-10-17T01:21:20;20.40;90.10
14577;DHT22;7375;46.072;14.470;2022-10-17T01:26:40;20.40;90.10
14577;DHT22;7375;46.072;14.470;2022-10-17T01:29:28;20.40;90.10
14577;DHT22;7375;46.072;14.470;2022-10-17T01:31:59;20.40;90.10
14577;DHT22;7375;46.072;14.470;2022-10-17T01:34:29;20.40;90.10
14577;DHT22;7375;46.072;14.470;2022-10-17T01:37:01;20.50;90.20
14577;DHT22;7375;46.072;14.470;2022-10-17T01:39:32;20.40;90.20
14577;DHT22;7375;46.072;14.470;2022-10-17T01:42:02;20.40;90.40
14577;DHT22;7375;46.072;14.470;2022-10-17T01:44:35;20.50;90.40
14577;DHT22;7375;46.072;14.470;2022-10-17T01:47:05;20.50;90.30
14577;DHT22;7375;46.072;14.470;2022-10-17T01:49:33;20.50;90.30
14577;DHT22;7375;46.072;14.470;2022-10-17T01:52:02;20.50;90.30
14577;DHT22;7375;46.072;14.470;2022-10-17T01:54:31;20.50;90.30
14577;DHT22;7375;46.072;14.470;2022-10-17T01:56:59;20.50;90.30
14577;DHT22;7375;46.072;14.470;2022-10-17T01:59:28;20.50;90.30
14577;DHT22;7375;46.072;14.470;2022-10-17T02:01:56;20.50;90.30
14577;DHT22;7375;46.072;14.470;2022-10-17T02:04:25;20.40;90.30
14577;DHT22;7375;46.072;14.470;2022-10-17T02:06:52;20.50;90.30
14577;DHT22;7375;46.072;14.470;2022-10-17T02:09:19;20.50;90.30
14577;DHT22;7375;46.072;14.470;2022-10-17T02:11:49;20.50;90.30
14577;DHT22;7375;46.072;14.470;2022-10-17T02:14:22;20.50;90.30
14577;DHT22;7375;46.072;14.470;2022-10-17T02:16:56;20.50;90.30
14577;DHT22;7375;46.072;14.470;2022-10-17T02:19:39;20.50;90.30
14577;DHT22;7375;46.072;14.470;2022-10-17T02:22:15;20.50;90.30
14577;DHT22;7375;46.072;14.470;2022-10-17T02:24:44;20.50;90.20
14577;DHT22;7375;46.072;14.470;2022-10-17T02:27:13;20.50;90.20
14577;DHT22;7375;46.072;14.470;2022-10-17T02:29:45;20.50;90.20
14577;DHT22;7375;46.072;14.470;2022-10-17T02:32:12;20.50;90.20
14577;DHT22;7375;46.072;14.470;2022-10-17T02:34:44;20.50;90.20
14577;DHT22;7375;46.072;14.470;2022-10-17T02:37:12;20.50;90.20
14577;DHT22;7375;46.072;14.470;2022-10-17T02:39:40;20.50;90.20
14577;DHT22;7375;46.072;14.470;2022-10-17T02:42:09;20.50;90.20
14577;DHT22;7375;46.072;14.470;2022-10-17T02:44:39;20.50;90.20
14577;DHT22;7375;46.072;14.470;2022-10-17T02:47:08;20.50;90.20
14577;DHT22;7375;46.072;14.470;2022-10-17T02:49:37;20.50;90.20
14577;DHT22;7375;46.072;14.470;2022-10-17T02:52:07;20.50;90.20
14577;DHT22;7375;46.072;14.470;2022-10-17T02:54:36;20.50;90.20
14577;DHT22;7375;46.072;14.470;2022-10-17T02:57:05;20.50;90.10
14577;DHT22;7375;46.072;14.470;2022-10-17T02:59:33;20.50;90.10
14577;DHT22;7375;46.072;14.470;2022-10-17T03:02:01;20.50;90.10
14577;DHT22;7375;46.072;14.470;2022-10-17T03:04:29;20.50;90.10
14577;DHT22;7375;46.072;14.470;2022-10-17T03:06:55;20.50;90.10
14577;DHT22;7375;46.072;14.470;2022-10-17T03:09:24;20.50;90.10
14577;DHT22;7375;46.072;14.470;2022-10-17T03:11:51;20.50;90.10
14577;DHT22;7375;46.072;14.470;2022-10-17T03:14:17;20.50;90.10
14577;DHT22;7375;46.072;14.470;2022-10-17T03:16:44;20.50;90.10
14577;DHT22;7375;46.072;14.470;2022-10-17T03:19:11;20.50;90.10
14577;DHT22;7375;46.072;14.470;2022-10-17T03:21:37;20.50;90.20
14577;DHT22;7375;46.072;14.470;2022-10-17T03:24:04;20.50;90.10
14577;DHT22;7375;46.072;14.470;2022-10-17T03:26:33;20.50;90.10
14577;DHT22;7375;46.072;14.470;2022-10-17T03:29:00;20.50;90.10
14577;DHT22;7375;46.072;14.470;2022-10-17T03:31:26;20.50;90.10
14577;DHT22;7375;46.072;14.470;2022-10-17T03:33:53;20.50;90.10
14577;DHT22;7375;46.072;14.470;2022-10-17T03:36:20;20.50;90.10
14577;DHT22;7375;46.072;14.470;2022-10-17T03:38:47;20.50;90.00
14577;DHT22;7375;46.072;14.470;2022-10-17T03:41:13;20.50;90.00
14577;DHT22;7375;46.072;14.470;2022-10-17T03:43:42;20.50;90.00
14577;DHT22;7375;46.072;14.470;2022-10-17T03:46:11;20.50;90.00
14577;DHT22;7375;46.072;14.470;2022-10-17T03:48:41;20.50;89.90
14577;DHT22;7375;46.072;14.470;2022-10-17T03:51:08;20.50;89.80
14577;DHT22;7375;46.072;14.470;2022-10-17T03:53:38;20.50;90.00
14577;DHT22;7375;46.072;14.470;2022-10-17T03:56:08;20.50;89.90
14577;DHT22;7375;46.072;14.470;2022-10-17T03:58:35;20.50;89.90
14577;DHT22;7375;46.072;14.470;2022-10-17T04:01:04;20.50;89.80
14577;DHT22;7375;46.072;14.470;2022-10-17T04:03:34;20.50;89.90
14577;DHT22;7375;46.072;14.470;2022-10-17T04:06:01;20.50;89.80
14577;DHT22;7375;46.072;14.470;2022-10-17T04:08:29;20.50;89.90
14577;DHT22;7375;46.072;14.470;2022-10-17T04:10:57;20.50;89.90
14577;DHT22;7375;46.072;14.470;2022-10-17T04:13:23;20.50;89.90
14577;DHT22;7375;46.072;14.470;2022-10-17T04:15:53;20.50;89.80
14577;DHT22;7375;46.072;14.470;2022-10-17T04:18:22;20.50;89.80
14577;DHT22;7375;46.072;14.470;2022-10-17T04:20:48;20.50;89.80
14577;DHT22;7375;46.072;14.470;2022-10-17T04:23:15;20.60;89.80
14577;DHT22;7375;46.072;14.470;2022-10-17T04:25:42;20.60;89.70
14577;DHT22;7375;46.072;14.470;2022-10-17T04:28:08;20.50;89.70
14577;DHT22;7375;46.072;14.470;2022-10-17T04:30:35;20.50;89.70
14577;DHT22;7375;46.072;14.470;2022-10-17T04:33:02;20.50;89.70
14577;DHT22;7375;46.072;14.470;2022-10-17T04:35:30;20.60;89.70
14577;DHT22;7375;46.072;14.470;2022-10-17T04:37:57;20.50;89.60
14577;DHT22;7375;46.072;14.470;2022-10-17T04:40:27;20.50;89.60
14577;DHT22;7375;46.072;14.470;2022-10-17T04:42:53;20.60;89.60
14577;DHT22;7375;46.072;14.470;2022-10-17T04:45:20;20.60;89.60
14577;DHT22;7375;46.072;14.470;2022-10-17T04:47:47;20.60;89.70
14577;DHT22;7375;46.072;14.470;2022-10-17T04:50:13;20.60;90.10
14577;DHT22;7375;46.072;14.470;2022-10-17T04:52:43;20.60;90.20
14577;DHT22;7375;46.072;14.470;2022-10-17T04:55:09;20.60;90.40
14577;DHT22;7375;46.072;14.470;2022-10-17T04:57:36;20.60;90.40
14577;DHT22;7375;46.072;14.470;2022-10-17T05:00:06;20.70;90.40
14577;DHT22;7375;46.072;14.470;2022-10-17T05:02:33;20.70;90.50
14577;DHT22;7375;46.072;14.470;2022-10-17T05:05:01;20.70;90.70
14577;DHT22;7375;46.072;14.470;2022-10-17T05:07:31;20.80;91.00
14577;DHT22;7375;46.072;14.470;2022-10-17T05:09:59;20.80;90.90
14577;DHT22;7375;46.072;14.470;2022-10-17T05:12:26;20.80;90.60
14577;DHT22;7375;46.072;14.470;2022-10-17T05:15:01;20.80;90.60
14577;DHT22;7375;46.072;14.470;2022-10-17T05:17:28;20.70;90.60
14577;DHT22;7375;46.072;14.470;2022-10-17T05:19:55;20.70;90.80
14577;DHT22;7375;46.072;14.470;2022-10-17T05:22:24;20.70;90.40
14577;DHT22;7375;46.072;14.470;2022-10-17T05:24:54;20.70;90.40
14577;DHT22;7375;46.072;14.470;2022-10-17T05:27:23;20.70;90.50
14577;DHT22;7375;46.072;14.470;2022-10-17T05:29:49;20.70;90.20
14577;DHT22;7375;46.072;14.470;2022-10-17T05:32:16;20.70;90.20
14577;DHT22;7375;46.072;14.470;2022-10-17T05:34:43;20.70;90.10
14577;DHT22;7375;46.072;14.470;2022-10-17T05:37:13;20.70;90.10
14577;DHT22;7375;46.072;14.470;2022-10-17T05:39:43;20.70;90.10
14577;DHT22;7375;46.072;14.470;2022-10-17T05:42:10;20.70;90.00
14577;DHT22;7375;46.072;14.470;2022-10-17T05:44:41;20.70;90.00
14577;DHT22;7375;46.072;14.470;2022-10-17T05:47:08;20.70;89.90
14577;DHT22;7375;46.072;14.470;2022-10-17T05:49:35;20.70;89.80
14577;DHT22;7375;46.072;14.470;2022-10-17T05:52:02;20.70;89.70
14577;DHT22;7375;46.072;14.470;2022-10-17T05:54:32;20.70;89.70
14577;DHT22;7375;46.072;14.470;2022-10-17T05:56:59;20.70;89.40
14577;DHT22;7375;46.072;14.470;2022-10-17T05:59:33;20.70;89.20
14577;DHT22;7375;46.072;14.470;2022-10-17T06:02:04;20.70;88.60
14577;DHT22;7375;46.072;14.470;2022-10-17T06:04:31;20.70;88.10
14577;DHT22;7375;46.072;14.470;2022-10-17T06:06:58;20.70;87.10
14577;DHT22;7375;46.072;14.470;2022-10-17T06:09:24;20.60;86.30
14577;DHT22;7375;46.072;14.470;2022-10-17T06:11:51;20.70;86.10
14577;DHT22;7375;46.072;14.470;2022-10-17T06:14:18;20.70;85.70
14577;DHT22;7375;46.072;14.470;2022-10-17T06:16:46;20.70;85.30
14577;DHT22;7375;46.072;14.470;2022-10-17T06:19:18;20.70;85.00
14577;DHT22;7375;46.072;14.470;2022-10-17T06:21:44;20.70;84.30
14577;DHT22;7375;46.072;14.470;2022-10-17T06:24:11;20.70;83.60
14577;DHT22;7375;46.072;14.470;2022-10-17T06:26:41;20.70;83.00
14577;DHT22;7375;46.072;14.470;2022-10-17T06:29:07;20.70;83.00
14577;DHT22;7375;46.072;14.470;2022-10-17T06:31:34;20.70;82.80
14577;DHT22;7375;46.072;14.470;2022-10-17T06:34:01;20.70;82.80
14577;DHT22;7375;46.072;14.470;2022-10-17T06:36:29;20.70;82.70
14577;DHT22;7375;46.072;14.470;2022-10-17T06:38:56;20.70;82.60
14577;DHT22;7375;46.072;14.470;2022-10-17T06:41:23;20.70;82.70
14577;DHT22;7375;46.072;14.470;2022-10-17T06:43:50;20.70;82.60
14577;DHT22;7375;46.072;14.470;2022-10-17T06:46:17;20.70;82.80
14577;DHT22;7375;46.072;14.470;2022-10-17T06:48:44;20.70;82.80
14577;DHT22;7375;46.072;14.470;2022-10-17T06:51:11;20.70;83.00
14577;DHT22;7375;46.072;14.470;2022-10-17T06:53:39;20.80;83.10
14577;DHT22;7375;46.072;14.470;2022-10-17T06:56:06;20.80;82.90
14577;DHT22;7375;46.072;14.470;2022-10-17T06:58:34;20.80;82.80
14577;DHT22;7375;46.072;14.470;2022-10-17T07:01:04;20.80;82.80
14577;DHT22;7375;46.072;14.470;2022-10-17T07:03:31;20.80;82.70
14577;DHT22;7375;46.072;14.470;2022-10-17T07:05:58;20.80;82.60
14577;DHT22;7375;46.072;14.470;2022-10-17T07:08:25;20.80;82.50
14577;DHT22;7375;46.072;14.470;2022-10-17T07:10:53;20.80;82.40
14577;DHT22;7375;46.072;14.470;2022-10-17T07:13:20;20.80;82.30
14577;DHT22;7375;46.072;14.470;2022-10-17T07:15:47;20.90;82.30
14577;DHT22;7375;46.072;14.470;2022-10-17T07:18:17;20.90;82.20
14577;DHT22;7375;46.072;14.470;2022-10-17T07:20:51;20.90;82.10
14577;DHT22;7375;46.072;14.470;2022-10-17T07:23:18;21.00;82.10
14577;DHT22;7375;46.072;14.470;2022-10-17T07:25:45;21.00;81.90
14577;DHT22;7375;46.072;14.470;2022-10-17T07:28:17;21.00;81.80
14577;DHT22;7375;46.072;14.470;2022-10-17T07:30:43;21.00;81.70
14577;DHT22;7375;46.072;14.470;2022-10-17T07:33:10;21.00;81.60
14577;DHT22;7375;46.072;14.470;2022-10-17T07:35:37;21.00;81.60
14577;DHT22;7375;46.072;14.470;2022-10-17T07:38:06;21.00;82.10
14577;DHT22;7375;46.072;14.470;2022-10-17T07:40:33;21.00;81.50
14577;DHT22;7375;46.072;14.470;2022-10-17T07:43:00;21.10;81.40
14577;DHT22;7375;46.072;14.470;2022-10-17T07:45:28;21.00;81.30
14577;DHT22;7375;46.072;14.470;2022-10-17T07:47:55;21.10;81.30
14577;DHT22;7375;46.072;14.470;2022-10-17T07:50:23;21.10;81.10
14577;DHT22;7375;46.072;14.470;2022-10-17T07:52:50;21.10;81.00
14577;DHT22;7375;46.072;14.470;2022-10-17T07:55:17;21.20;80.90
14577;DHT22;7375;46.072;14.470;2022-10-17T07:57:43;21.20;80.80
14577;DHT22;7375;46.072;14.470;2022-10-17T08:00:11;21.20;80.60
14577;DHT22;7375;46.072;14.470;2022-10-17T08:02:39;21.30;80.60
14577;DHT22;7375;46.072;14.470;2022-10-17T08:05:06;21.20;80.40
14577;DHT22;7375;46.072;14.470;2022-10-17T08:07:33;21.30;80.40
14577;DHT22;7375;46.072;14.470;2022-10-17T08:10:00;21.30;80.30
14577;DHT22;7375;46.072;14.470;2022-10-17T08:12:27;21.30;80.20
14577;DHT22;7375;46.072;14.470;2022-10-17T08:14:56;21.30;80.00
14577;DHT22;7375;46.072;14.470;2022-10-17T08:17:23;21.30;79.90
14577;DHT22;7375;46.072;14.470;2022-10-17T08:19:51;21.40;79.90
14577;DHT22;7375;46.072;14.470;2022-10-17T08:22:20;21.40;79.80
14577;DHT22;7375;46.072;14.470;2022-10-17T08:24:49;21.40;79.60
14577;DHT22;7375;46.072;14.470;2022-10-17T08:27:15;21.40;79.50
14577;DHT22;7375;46.072;14.470;2022-10-17T08:29:50;21.40;79.40
14577;DHT22;7375;46.072;14.470;2022-10-17T08:32:18;21.50;79.30
14577;DHT22;7375;46.072;14.470;2022-10-17T08:34:45;21.50;79.10
14577;DHT22;7375;46.072;14.470;2022-10-17T08:37:15;21.50;79.00
14577;DHT22;7375;46.072;14.470;2022-10-17T08:39:42;21.50;79.00
14577;DHT22;7375;46.072;14.470;2022-10-17T08:42:16;21.50;78.90
14577;DHT22;7375;46.072;14.470;2022-10-17T08:44:49;21.50;78.80
14577;DHT22;7375;46.072;14.470;2022-10-17T08:47:25;21.50;78.70
14577;DHT22;7375;46.072;14.470;2022-10-17T08:49:53;21.60;78.70
14577;DHT22;7375;46.072;14.470;2022-10-17T08:52:25;21.60;78.60
14577;DHT22;7375;46.072;14.470;2022-10-17T08:54:54;21.60;78.50
14577;DHT22;7375;46.072;14.470;2022-10-17T08:57:22;21.60;78.40
14577;DHT22;7375;46.072;14.470;2022-10-17T08:59:49;21.60;78.40
14577;DHT22;7375;46.072;14.470;2022-10-17T09:02:27;21.70;78.30
14577;DHT22;7375;46.072;14.470;2022-10-17T09:05:04;21.70;78.20
14577;DHT22;7375;46.072;14.470;2022-10-17T09:07:38;21.70;78.10
14577;DHT22;7375;46.072;14.470;2022-10-17T09:10:09;21.70;78.00
14577;DHT22;7375;46.072;14.470;2022-10-17T09:12:42;21.70;77.80
14577;DHT22;7375;46.072;14.470;2022-10-17T09:15:36;21.80;77.80
14577;DHT22;7375;46.072;14.470;2022-10-17T09:18:09;21.80;77.70
14577;DHT22;7375;46.072;14.470;2022-10-17T09:20:38;21.80;77.60
14577;DHT22;7375;46.072;14.470;2022-10-17T09:23:11;21.80;77.60
14577;DHT22;7375;46.072;14.470;2022-10-17T09:25:41;21.90;77.60
14577;DHT22;7375;46.072;14.470;2022-10-17T09:28:18;21.80;77.90
14577;DHT22;7375;46.072;14.470;2022-10-17T09:30:53;21.90;77.20
14577;DHT22;7375;46.072;14.470;2022-10-17T09:33:24;21.90;77.00
14577;DHT22;7375;46.072;14.470;2022-10-17T09:36:00;22.00;76.80
14577;DHT22;7375;46.072;14.470;2022-10-17T09:38:37;22.10;76.60
14577;DHT22;7375;46.072;14.470;2022-10-17T09:41:12;22.10;76.20
14577;DHT22;7375;46.072;14.470;2022-10-17T09:43:46;22.20;76.00
14577;DHT22;7375;46.072;14.470;2022-10-17T09:46:16;22.30;75.60
14577;DHT22;7375;46.072;14.470;2022-10-17T09:48:44;22.40;75.00
14577;DHT22;7375;46.072;14.470;2022-10-17T09:51:12;22.50;74.50
14577;DHT22;7375;46.072;14.470;2022-10-17T09:53:45;22.60;73.70
14577;DHT22;7375;46.072;14.470;2022-10-17T09:56:14;22.70;73.20
14577;DHT22;7375;46.072;14.470;2022-10-17T09:58:46;22.80;72.60
14577;DHT22;7375;46.072;14.470;2022-10-17T10:01:21;23.00;72.20
14577;DHT22;7375;46.072;14.470;2022-10-17T10:06:31;23.00;71.60
14577;DHT22;7375;46.072;14.470;2022-10-17T10:09:00;23.00;71.40
14577;DHT22;7375;46.072;14.470;2022-10-17T10:11:47;23.00;71.50
14577;DHT22;7375;46.072;14.470;2022-10-17T10:14:19;23.00;71.50
14577;DHT22;7375;46.072;14.470;2022-10-17T10:16:50;23.00;71.50
14577;DHT22;7375;46.072;14.470;2022-10-17T10:19:25;23.00;71.70
14577;DHT22;7375;46.072;14.470;2022-10-17T10:21:58;23.00;71.60
14577;DHT22;7375;46.072;14.470;2022-10-17T10:24:34;22.90;71.60
14577;DHT22;7375;46.072;14.470;2022-10-17T10:27:03;22.90;71.60
14577;DHT22;7375;46.072;14.470;2022-10-17T10:29:30;22.90;71.70
14577;DHT22;7375;46.072;14.470;2022-10-17T10:32:09;22.90;71.60
14577;DHT22;7375;46.072;14.470;2022-10-17T10:34:46;22.90;71.80
14577;DHT22;7375;46.072;14.470;2022-10-17T10:37:15;22.90;71.80
14577;DHT22;7375;46.072;14.470;2022-10-17T10:39:48;22.90;71.80
14577;DHT22;7375;46.072;14.470;2022-10-17T10:42:20;22.90;70.10
14577;DHT22;7375;46.072;14.470;2022-10-17T10:44:47;21.70;63.20
14577;DHT22;7375;46.072;14.470;2022-10-17T10:47:17;21.00;63.50
14577;DHT22;7375;46.072;14.470;2022-10-17T10:49:45;20.50;63.80
14577;DHT22;7375;46.072;14.470;2022-10-17T10:52:14;20.30;65.40
14577;DHT22;7375;46.072;14.470;2022-10-17T10:54:53;20.30;65.60
14577;DHT22;7375;46.072;14.470;2022-10-17T10:57:22;20.30;65.40
14577;DHT22;7375;46.072;14.470;2022-10-17T11:00:17;20.20;65.30
14577;DHT22;7375;46.072;14.470;2022-10-17T11:02:46;20.00;67.10
14577;DHT22;7375;46.072;14.470;2022-10-17T11:05:20;20.00;67.00
14577;DHT22;7375;46.072;14.470;2022-10-17T11:07:50;20.00;66.60
14577;DHT22;7375;46.072;14.470;2022-10-17T11:10:24;20.10;67.10
14577;DHT22;7375;46.072;14.470;2022-10-17T11:12:55;20.10;65.70
14577;DHT22;7375;46.072;14.470;2022-10-17T11:15:27;20.10;66.50
14577;DHT22;7375;46.072;14.470;2022-10-17T11:17:59;20.00;66.10
14577;DHT22;7375;46.072;14.470;2022-10-17T11:20:29;20.10;65.90
14577;DHT22;7375;46.072;14.470;2022-10-17T11:23:00;20.00;66.10
14577;DHT22;7375;46.072;14.470;2022-10-17T11:25:32;20.00;66.30
14577;DHT22;7375;46.072;14.470;2022-10-17T11:28:02;19.90;67.20
14577;DHT22;7375;46.072;14.470;2022-10-17T11:30:37;20.10;67.50
14577;DHT22;7375;46.072;14.470;2022-10-17T11:33:11;20.60;67.30
14577;DHT22;7375;46.072;14.470;2022-10-17T11:35:53;21.00;66.70
14577;DHT22;7375;46.072;14.470;2022-10-17T11:38:24;21.20;66.30
14577;DHT22;7375;46.072;14.470;2022-10-17T11:40:54;21.30;66.30
14577;DHT22;7375;46.072;14.470;2022-10-17T11:43:24;21.40;66.40
14577;DHT22;7375;46.072;14.470;2022-10-17T11:45:54;21.40;66.50
14577;DHT22;7375;46.072;14.470;2022-10-17T11:48:22;21.50;66.70
14577;DHT22;7375;46.072;14.470;2022-10-17T11:50:52;21.50;66.90
14577;DHT22;7375;46.072;14.470;2022-10-17T11:53:23;21.50;67.00
14577;DHT22;7375;46.072;14.470;2022-10-17T11:55:51;21.50;67.20
14577;DHT22;7375;46.072;14.470;2022-10-17T11:58:26;21.60;67.40
14577;DHT22;7375;46.072;14.470;2022-10-17T12:00:58;21.60;67.50
14577;DHT22;7375;46.072;14.470;2022-10-17T12:03:43;21.60;67.70
14577;DHT22;7375;46.072;14.470;2022-10-17T12:06:15;21.60;67.80
14577;DHT22;7375;46.072;14.470;2022-10-17T12:08:48;21.60;67.90
14577;DHT22;7375;46.072;14.470;2022-10-17T12:11:22;21.60;68.00
14577;DHT22;7375;46.072;14.470;2022-10-17T12:13:53;21.60;68.10
14577;DHT22;7375;46.072;14.470;2022-10-17T12:19:30;21.60;68.30
14577;DHT22;7375;46.072;14.470;2022-10-17T12:22:02;21.60;68.50
14577;DHT22;7375;46.072;14.470;2022-10-17T12:24:34;21.60;69.20
14577;DHT22;7375;46.072;14.470;2022-10-17T12:27:20;21.60;68.90
14577;DHT22;7375;46.072;14.470;2022-10-17T12:29:48;21.70;69.00
14577;DHT22;7375;46.072;14.470;2022-10-17T12:32:20;21.70;69.10
14577;DHT22;7375;46.072;14.470;2022-10-17T12:34:54;21.70;69.20
14577;DHT22;7375;46.072;14.470;2022-10-17T12:43:02;21.70;69.50
14577;DHT22;7375;46.072;14.470;2022-10-17T12:45:50;21.70;69.60
14577;DHT22;7375;46.072;14.470;2022-10-17T12:51:03;21.70;69.80
14577;DHT22;7375;46.072;14.470;2022-10-17T12:53:33;21.70;69.90
14577;DHT22;7375;46.072;14.470;2022-10-17T12:56:09;21.70;69.90
14577;DHT22;7375;46.072;14.470;2022-10-17T12:58:36;21.70;70.00
14577;DHT22;7375;46.072;14.470;2022-10-17T13:01:15;21.70;70.10
14577;DHT22;7375;46.072;14.470;2022-10-17T13:03:45;21.70;70.10
14577;DHT22;7375;46.072;14.470;2022-10-17T13:06:18;21.70;70.10
14577;DHT22;7375;46.072;14.470;2022-10-17T13:08:47;21.70;70.20
14577;DHT22;7375;46.072;14.470;2022-10-17T13:11:16;21.70;70.30
14577;DHT22;7375;46.072;14.470;2022-10-17T13:13:53;21.70;70.30
14577;DHT22;7375;46.072;14.470;2022-10-17T13:16:32;21.80;70.40
14577;DHT22;7375;46.072;14.470;2022-10-17T13:19:00;21.70;70.40
14577;DHT22;7375;46.072;14.470;2022-10-17T13:21:50;21.80;70.60
14577;DHT22;7375;46.072;14.470;2022-10-17T13:24:27;21.80;70.60
14577;DHT22;7375;46.072;14.470;2022-10-17T13:26:55;21.80;70.60
14577;DHT22;7375;46.072;14.470;2022-10-17T13:29:22;21.80;70.70
14577;DHT22;7375;46.072;14.470;2022-10-17T13:31:52;21.80;70.70
14577;DHT22;7375;46.072;14.470;2022-10-17T13:34:23;21.80;70.80
14577;DHT22;7375;46.072;14.470;2022-10-17T13:37:11;21.80;70.80
14577;DHT22;7375;46.072;14.470;2022-10-17T13:39:45;21.80;70.80
14577;DHT22;7375;46.072;14.470;2022-10-17T13:42:20;21.80;70.80
14577;DHT22;7375;46.072;14.470;2022-10-17T13:44:54;21.80;70.90
14577;DHT22;7375;46.072;14.470;2022-10-17T13:47:34;21.80;70.90
14577;DHT22;7375;46.072;14.470;2022-10-17T13:50:05;21.80;70.90
14577;DHT22;7375;46.072;14.470;2022-10-17T13:52:35;21.80;71.00
14577;DHT22;7375;46.072;14.470;2022-10-17T13:55:06;21.80;71.00
14577;DHT22;7375;46.072;14.470;2022-10-17T13:57:38;21.80;71.00
14577;DHT22;7375;46.072;14.470;2022-10-17T14:00:10;21.80;71.00
14577;DHT22;7375;46.072;14.470;2022-10-17T14:02:43;21.80;71.00
14577;DHT22;7375;46.072;14.470;2022-10-17T14:05:15;21.80;71.00
14577;DHT22;7375;46.072;14.470;2022-10-17T14:07:53;21.80;71.10
14577;DHT22;7375;46.072;14.470;2022-10-17T14:10:23;21.80;71.10
14577;DHT22;7375;46.072;14.470;2022-10-17T14:12:51;21.80;71.10
14577;DHT22;7375;46.072;14.470;2022-10-17T14:15:18;21.80;71.10
14577;DHT22;7375;46.072;14.470;2022-10-17T14:17:52;21.80;71.10
14577;DHT22;7375;46.072;14.470;2022-10-17T14:20:20;21.80;71.10
14577;DHT22;7375;46.072;14.470;2022-10-17T14:22:48;21.80;71.20
14577;DHT22;7375;46.072;14.470;2022-10-17T14:25:28;21.80;71.20
14577;DHT22;7375;46.072;14.470;2022-10-17T14:27:59;21.80;71.20
14577;DHT22;7375;46.072;14.470;2022-10-17T14:30:34;21.80;71.20
14577;DHT22;7375;46.072;14.470;2022-10-17T14:33:06;21.80;71.80
14577;DHT22;7375;46.072;14.470;2022-10-17T14:35:33;21.80;71.20
14577;DHT22;7375;46.072;14.470;2022-10-17T14:38:05;21.80;71.30
14577;DHT22;7375;46.072;14.470;2022-10-17T14:40:33;21.90;71.40
14577;DHT22;7375;46.072;14.470;2022-10-17T14:43:01;21.80;71.30
14577;DHT22;7375;46.072;14.470;2022-10-17T14:45:32;21.80;71.30
14577;DHT22;7375;46.072;14.470;2022-10-17T14:48:08;21.80;71.40
14577;DHT22;7375;46.072;14.470;2022-10-17T14:50:43;21.90;71.40
14577;DHT22;7375;46.072;14.470;2022-10-17T14:53:35;21.80;71.40
14577;DHT22;7375;46.072;14.470;2022-10-17T14:58:57;21.80;71.40
14577;DHT22;7375;46.072;14.470;2022-10-17T15:01:24;21.80;71.50
14577;DHT22;7375;46.072;14.470;2022-10-17T15:03:54;21.80;71.50
14577;DHT22;7375;46.072;14.470;2022-10-17T15:06:23;21.80;71.50
14577;DHT22;7375;46.072;14.470;2022-10-17T15:08:53;21.80;71.60
14577;DHT22;7375;46.072;14.470;2022-10-17T15:11:23;21.80;71.60
14577;DHT22;7375;46.072;14.470;2022-10-17T15:13:53;21.80;71.60
14577;DHT22;7375;46.072;14.470;2022-10-17T15:16:22;21.80;71.70
14577;DHT22;7375;46.072;14.470;2022-10-17T15:18:50;21.80;71.70
14577;DHT22;7375;46.072;14.470;2022-10-17T15:21:21;21.80;71.80
14577;DHT22;7375;46.072;14.470;2022-10-17T15:23:49;21.80;71.90
14577;DHT22;7375;46.072;14.470;2022-10-17T15:26:17;21.80;72.10
14577;DHT22;7375;46.072;14.470;2022-10-17T15:28:44;21.80;72.30
14577;DHT22;7375;46.072;14.470;2022-10-17T15:31:12;21.80;72.60
14577;DHT22;7375;46.072;14.470;2022-10-17T15:33:39;21.70;72.60
14577;DHT22;7375;46.072;14.470;2022-10-17T15:36:16;21.70;72.70
14577;DHT22;7375;46.072;14.470;2022-10-17T15:38:44;21.70;72.80
14577;DHT22;7375;46.072;14.470;2022-10-17T15:41:12;21.70;72.90
14577;DHT22;7375;46.072;14.470;2022-10-17T15:43:40;21.70;73.10
14577;DHT22;7375;46.072;14.470;2022-10-17T15:46:13;21.70;73.20
14577;DHT22;7375;46.072;14.470;2022-10-17T15:48:46;21.70;73.30
14577;DHT22;7375;46.072;14.470;2022-10-17T15:51:16;21.70;73.50
14577;DHT22;7375;46.072;14.470;2022-10-17T15:53:46;21.60;73.60
14577;DHT22;7375;46.072;14.470;2022-10-17T15:56:21;21.60;73.70
14577;DHT22;7375;46.072;14.470;2022-10-17T15:59:00;21.60;73.80
14577;DHT22;7375;46.072;14.470;2022-10-17T16:01:31;21.60;74.00
14577;DHT22;7375;46.072;14.470;2022-10-17T16:04:00;21.60;74.10
14577;DHT22;7375;46.072;14.470;2022-10-17T16:06:33;21.60;74.20
14577;DHT22;7375;46.072;14.470;2022-10-17T16:09:05;21.50;74.20